This is the latest recevied weather packets stored in our database for station/object KD6VEX-1. If no packets are shown the sender has not sent any weather packets the latest 10 day(s).
| Time | Temp. | Humidity | Pressure | Rain* | Wind** | Luminosity | Snow |
|---|---|---|---|---|---|---|---|
| 1777754978 | 21.11° C | 63% | 1013.5 hPa | 0 mm | - | - | - |
| 1777753779 | 20° C | 66% | 1013.7 hPa | 0 mm | - | - | - |
| 1777753476 | 20° C | 65% | 1013.7 hPa | 0 mm | - | - | - |
| 1777753181 | 20° C | 66% | 1013.7 hPa | 0 mm | - | - | - |
| 1777752876 | 19.44° C | 67% | 1013.8 hPa | 0 mm | - | - | - |
| 1777752578 | 19.44° C | 67% | 1013.8 hPa | 0 mm | - | - | - |
| 1777752276 | 19.44° C | 68% | 1013.9 hPa | 0 mm | - | - | - |
| 1777751676 | 18.33° C | 71% | 1014.2 hPa | 0 mm | - | - | - |
| 1777751380 | 18.33° C | 72% | 1014.2 hPa | 0 mm | - | - | - |
| 1777750476 | 17.78° C | 72% | 1014.5 hPa | 0 mm | - | - | - |
| 1777750177 | 17.78° C | 72% | 1014.5 hPa | 0 mm | - | - | - |
| 1777749876 | 18.33° C | 73% | 1014.5 hPa | 0 mm | - | - | - |
| 1777749578 | 17.78° C | 76% | 1014.4 hPa | 0 mm | - | - | - |
| 1777749276 | 17.22° C | 76% | 1014.5 hPa | 0 mm | - | - | - |
| 1777748676 | 16.67° C | 78% | 1014.6 hPa | 0 mm | - | - | - |
| 1777748378 | 16.11° C | 79% | 1014.7 hPa | 0 mm | - | - | - |
| 1777748076 | 16.11° C | 80% | 1014.7 hPa | 0 mm | - | - | - |
| 1777747476 | 15.56° C | 80% | 1014.8 hPa | 0 mm | - | - | - |
| 1777746822 | 15.56° C | 80% | 1014.8 hPa | 0 mm | - | - | - |
| 1777746522 | 15.56° C | 81% | 1014.8 hPa | 0 mm | - | - | - |
| 1777746222 | 15.56° C | 82% | 1014.8 hPa | 0 mm | - | - | - |
| 1777745922 | 15.56° C | 81% | 1014.9 hPa | 0 mm | - | - | - |
| 1777745322 | 15.56° C | 81% | 1014.9 hPa | 0 mm | - | - | - |
| 1777745022 | 15.56° C | 81% | 1014.9 hPa | 0 mm | - | - | - |
| 1777744722 | 15.56° C | 81% | 1014.8 hPa | 0 mm | - | - | - |
* Rain latest hour (hover to see other rain measurements)
** Current wind speed in m/s (hover to see current wind gust speed)